Webcam

2024/03/05 05:50 EBBR 050550Z 21005KT 9999 FEW045 06/03 Q1012 NOSIG

Webcam

--- Refresh now ---